Time;durP1;ratioP1;P1;durP2;ratioP2;P2;SDS_P1;SDS_P2;PMS_P1;PMS_P2;Temp;Humidity;BMP_temperature;BMP_pressure;BME280_temperature;BME280_humidity;BME280_pressure;Samples;Min_cycle;Max_cycle;Signal;HPM_P1;HPM_P2
2023/01/04 00:01:44;;;;;;;4.47;2.40;;;;;;;;;;5054909;28;20659;-91
2023/01/04 00:04:12;;;;;;;6.60;2.10;;;;;;;;;;5034316;28;20048;-90
2023/01/04 00:06:46;;;;;;;5.50;2.20;;;;;;;;;;5030188;28;20076;-91
2023/01/04 00:09:13;;;;;;;5.63;2.70;;;;;;;;;;5038196;28;20152;-90
2023/01/04 00:11:40;;;;;;;3.28;1.98;;;;;;;;;;5036704;28;20046;-90
2023/01/04 00:14:13;;;;;;;6.63;1.90;;;;;;;;;;5036577;28;20084;-91
2023/01/04 00:16:41;;;;;;;4.82;2.10;;;;;;;;;;5008819;28;20042;-91
2023/01/04 00:19:11;;;;;;;6.70;2.20;;;;;;;;;;5030635;28;20057;-91
2023/01/04 00:21:43;;;;;;;4.15;1.92;;;;;;;;;;5024274;28;20049;-92
2023/01/04 00:24:14;;;;;;;8.77;3.55;;;;;;;;;;5043521;28;20034;-91
2023/01/04 00:26:41;;;;;;;5.55;2.30;;;;;;;;;;5021275;28;20533;-91
2023/01/04 00:29:33;;;;;;;8.90;2.17;;;;;;;;;;4998018;28;20052;-91
2023/01/04 00:32:05;;;;;;;5.80;2.50;;;;;;;;;;5025758;28;20543;-91
2023/01/04 00:34:32;;;;;;;5.35;2.33;;;;;;;;;;4996253;28;20045;-90
2023/01/04 00:37:01;;;;;;;4.03;1.83;;;;;;;;;;5024383;28;20063;-90
2023/01/04 00:39:29;;;;;;;5.68;2.20;;;;;;;;;;5053188;28;20100;-90
2023/01/04 00:42:23;;;;;;;5.00;1.90;;;;;;;;;;5060101;28;20042;-90
2023/01/04 00:44:51;;;;;;;2.97;1.80;;;;;;;;;;5056910;28;20034;-91
2023/01/04 00:47:24;;;;;;;11.70;4.15;;;;;;;;;;5026802;28;20096;-90
2023/01/04 00:49:56;;;;;;;5.70;2.53;;;;;;;;;;5023866;28;20028;-90
2023/01/04 00:52:24;;;;;;;10.82;3.72;;;;;;;;;;5055374;28;20509;-91
2023/01/04 00:54:56;;;;;;;4.85;2.00;;;;;;;;;;5026057;28;20037;-91
2023/01/04 00:57:24;;;;;;;10.13;3.63;;;;;;;;;;5037981;28;20121;-91
2023/01/04 00:59:56;;;;;;;11.73;3.00;;;;;;;;;;5026857;28;20038;-92
2023/01/04 01:02:24;;;;;;;6.30;1.88;;;;;;;;;;5024868;28;20069;-91
2023/01/04 01:04:52;;;;;;;7.47;2.42;;;;;;;;;;5044011;28;20041;-91
2023/01/04 01:07:20;;;;;;;6.43;2.00;;;;;;;;;;5038090;28;20070;-91
2023/01/04 01:09:53;;;;;;;7.60;2.80;;;;;;;;;;5037999;28;20333;-91
2023/01/04 01:12:20;;;;;;;5.43;1.85;;;;;;;;;;5024529;28;20065;-91
2023/01/04 01:14:52;;;;;;;9.57;2.70;;;;;;;;;;5028233;28;20157;-91
2023/01/04 01:17:58;;;;;;;6.88;2.75;;;;;;;;;;5029607;28;20034;-91
2023/01/04 01:20:24;;;;;;;3.90;1.73;;;;;;;;;;5024296;28;20504;-91
2023/01/04 01:22:52;;;;;;;4.68;2.13;;;;;;;;;;5028618;28;20087;-91
2023/01/04 01:25:20;;;;;;;3.80;1.73;;;;;;;;;;5040156;28;20041;-91
2023/01/04 01:27:48;;;;;;;4.05;1.52;;;;;;;;;;5053764;28;20117;-91
2023/01/04 01:30:20;;;;;;;6.53;1.80;;;;;;;;;;5025930;28;20035;-91
2023/01/04 01:32:53;;;;;;;13.57;3.70;;;;;;;;;;5029258;28;20048;-91
2023/01/04 01:35:20;;;;;;;7.18;2.17;;;;;;;;;;5021101;28;20050;-91
2023/01/04 01:37:49;;;;;;;4.97;1.75;;;;;;;;;;5035424;28;20049;-91
2023/01/04 01:40:17;;;;;;;4.75;2.08;;;;;;;;;;5024364;28;20045;-91
2023/01/04 01:42:46;;;;;;;4.78;2.00;;;;;;;;;;5023692;28;20039;-90
2023/01/04 01:45:36;;;;;;;7.55;1.92;;;;;;;;;;5016343;28;20046;-91
2023/01/04 01:48:16;;;;;;;5.93;1.90;;;;;;;;;;5020426;28;20045;-90
2023/01/04 01:50:56;;;;;;;6.55;1.70;;;;;;;;;;5013413;28;20117;-91
2023/01/04 01:53:25;;;;;;;6.70;1.85;;;;;;;;;;5017667;28;20042;-90
2023/01/04 01:55:59;;;;;;;7.60;2.80;;;;;;;;;;5017956;28;20069;-91
2023/01/04 01:58:31;;;;;;;5.88;2.53;;;;;;;;;;5030310;28;20033;-91
2023/01/04 02:00:59;;;;;;;8.73;2.80;;;;;;;;;;5039570;28;20112;-91
2023/01/04 02:03:35;;;;;;;6.68;1.92;;;;;;;;;;5030177;28;20037;-90
2023/01/04 02:06:06;;;;;;;7.35;2.10;;;;;;;;;;5021603;28;20463;-91
2023/01/04 02:08:37;;;;;;;8.35;2.00;;;;;;;;;;5031838;28;20038;-90
2023/01/04 02:11:09;;;;;;;9.70;3.15;;;;;;;;;;5006592;28;20033;-91
2023/01/04 02:16:31;;;;;;;11.73;3.35;;;;;;;;;;5018804;28;20044;-91
2023/01/04 02:19:21;;;;;;;5.72;2.10;;;;;;;;;;5046501;28;20061;-91
2023/01/04 02:22:02;;;;;;;3.20;1.60;;;;;;;;;;5015765;28;20551;-91
2023/01/04 02:24:56;;;;;;;4.82;2.10;;;;;;;;;;5002571;28;20037;-91
2023/01/04 02:27:43;;;;;;;6.38;1.80;;;;;;;;;;5066543;28;20073;-90
2023/01/04 02:30:31;;;;;;;4.45;1.90;;;;;;;;;;5025003;28;20032;-90
2023/01/04 02:33:06;;;;;;;5.85;1.88;;;;;;;;;;4984361;28;20144;-91
2023/01/04 02:35:44;;;;;;;9.80;2.33;;;;;;;;;;4983676;28;20059;-91
2023/01/04 02:38:38;;;;;;;3.55;1.58;;;;;;;;;;4961167;28;20077;-90
2023/01/04 02:41:50;;;;;;;7.03;1.98;;;;;;;;;;4973155;28;20041;-90
2023/01/04 02:50:36;;;;;;;11.35;2.63;;;;;;;;;;4930291;29;20086;-90
2023/01/04 02:53:14;;;;;;;9.10;2.78;;;;;;;;;;4927059;29;20043;-90
2023/01/04 02:56:14;;;;;;;24.40;7.72;;;;;;;;;;4926995;29;20048;-90
2023/01/04 02:58:58;;;;;;;5.45;2.58;;;;;;;;;;4930631;29;20115;-89
2023/01/04 03:08:11;;;;;;;7.72;1.40;;;;;;;;;;4861506;29;20076;-90
2023/01/04 03:10:44;;;;;;;6.90;1.50;;;;;;;;;;4875684;29;20049;-90
2023/01/04 03:13:19;;;;;;;4.97;1.55;;;;;;;;;;4897169;29;20056;-91
2023/01/04 03:16:07;;;;;;;4.90;1.48;;;;;;;;;;4897060;29;20063;-91
2023/01/04 03:18:42;;;;;;;6.55;2.00;;;;;;;;;;4909766;29;20076;-90
2023/01/04 03:21:14;;;;;;;9.85;2.15;;;;;;;;;;4898249;29;20047;-91
2023/01/04 03:36:20;;;;;;;8.35;2.13;;;;;;;;;;4949541;29;20071;-90
2023/01/04 03:51:15;;;;;;;10.55;2.45;;;;;;;;;;5001249;28;20069;-90
2023/01/04 03:54:24;;;;;;;7.93;2.63;;;;;;;;;;5023752;28;20088;-91
2023/01/04 03:56:53;;;;;;;6.43;2.00;;;;;;;;;;5004901;28;20124;-90
2023/01/04 03:59:22;;;;;;;14.70;4.82;;;;;;;;;;5019339;28;20052;-90
2023/01/04 04:02:18;;;;;;;6.13;2.35;;;;;;;;;;5053789;28;20037;-91
2023/01/04 04:11:29;;;;;;;4.90;1.95;;;;;;;;;;5045170;28;20041;-90
2023/01/04 04:14:05;;;;;;;7.93;1.95;;;;;;;;;;4996537;28;20075;-91
2023/01/04 04:16:33;;;;;;;4.63;1.70;;;;;;;;;;5051646;28;20049;-90
2023/01/04 04:19:04;;;;;;;3.80;1.17;;;;;;;;;;5023265;28;20394;-91
2023/01/04 04:21:57;;;;;;;3.80;1.60;;;;;;;;;;5029671;28;20033;-90
2023/01/04 04:24:25;;;;;;;6.25;1.30;;;;;;;;;;5020545;28;20418;-90
2023/01/04 04:26:54;;;;;;;2.72;1.38;;;;;;;;;;5016032;28;20037;-90
2023/01/04 04:29:23;;;;;;;4.60;1.42;;;;;;;;;;5050850;28;20045;-90
2023/01/04 04:31:51;;;;;;;5.72;1.60;;;;;;;;;;5022165;28;20048;-90
2023/01/04 04:34:19;;;;;;;2.97;1.42;;;;;;;;;;5012382;28;20069;-90
2023/01/04 04:36:47;;;;;;;4.45;1.85;;;;;;;;;;5022445;28;20034;-90
2023/01/04 04:39:15;;;;;;;4.30;1.40;;;;;;;;;;4999406;28;20060;-90
2023/01/04 04:41:43;;;;;;;7.70;1.55;;;;;;;;;;5020865;28;20045;-91
2023/01/04 04:44:13;;;;;;;4.05;1.40;;;;;;;;;;5051849;28;20413;-90
2023/01/04 04:46:42;;;;;;;4.10;1.33;;;;;;;;;;5033198;28;20045;-91
2023/01/04 04:49:10;;;;;;;5.68;1.40;;;;;;;;;;5018418;28;20041;-90
2023/01/04 04:51:40;;;;;;;3.55;1.48;;;;;;;;;;5050593;28;20409;-90
2023/01/04 04:54:08;;;;;;;4.45;1.63;;;;;;;;;;5019868;28;20069;-90
2023/01/04 04:56:37;;;;;;;6.03;1.45;;;;;;;;;;5022471;28;20129;-90
2023/01/04 04:59:28;;;;;;;2.78;1.35;;;;;;;;;;5015641;28;20037;-90
2023/01/04 05:01:56;;;;;;;5.25;1.40;;;;;;;;;;5046029;28;20654;-91
2023/01/04 05:04:25;;;;;;;2.63;1.20;;;;;;;;;;5048564;28;20054;-90
2023/01/04 05:06:53;;;;;;;4.90;1.58;;;;;;;;;;5015802;28;20052;-90
2023/01/04 05:09:20;;;;;;;7.15;1.85;;;;;;;;;;5018303;28;20037;-90
2023/01/04 05:14:34;;;;;;;3.75;1.33;;;;;;;;;;5045792;28;20052;-90
2023/01/04 05:17:26;;;;;;;4.13;1.20;;;;;;;;;;5016801;28;20056;-90
2023/01/04 05:19:55;;;;;;;8.27;1.60;;;;;;;;;;5047801;28;20038;-90
2023/01/04 05:22:26;;;;;;;6.03;1.80;;;;;;;;;;5017549;28;20042;-91
2023/01/04 05:24:55;;;;;;;9.20;1.75;;;;;;;;;;5015562;28;20060;-90
2023/01/04 05:27:26;;;;;;;3.08;1.27;;;;;;;;;;5019656;28;20037;-90
2023/01/04 05:32:40;;;;;;;7.20;1.88;;;;;;;;;;5052832;28;20511;-90
2023/01/04 05:35:33;;;;;;;3.97;1.60;;;;;;;;;;5013572;28;20083;-89
2023/01/04 05:38:01;;;;;;;7.75;1.50;;;;;;;;;;5023686;28;20564;-90
2023/01/04 05:40:38;;;;;;;4.18;1.42;;;;;;;;;;5015646;28;20067;-91
2023/01/04 05:43:04;;;;;;;4.10;1.27;;;;;;;;;;5017837;28;20053;-91
2023/01/04 05:45:33;;;;;;;3.13;1.50;;;;;;;;;;5020225;28;20475;-90
2023/01/04 05:48:01;;;;;;;5.43;1.63;;;;;;;;;;5051752;28;20041;-91
2023/01/04 05:50:52;;;;;;;5.82;1.60;;;;;;;;;;5018419;28;20480;-90
2023/01/04 05:53:20;;;;;;;7.47;1.60;;;;;;;;;;5037459;28;20037;-90
2023/01/04 05:55:59;;;;;;;6.43;1.83;;;;;;;;;;5037415;28;20121;-90
2023/01/04 05:58:31;;;;;;;4.65;1.90;;;;;;;;;;5022709;28;20044;-90
2023/01/04 06:00:58;;;;;;;4.63;1.63;;;;;;;;;;5051081;28;20397;-90
2023/01/04 06:03:26;;;;;;;4.22;1.73;;;;;;;;;;5018948;28;20038;-90
2023/01/04 06:05:59;;;;;;;3.65;1.40;;;;;;;;;;5018980;28;20093;-90
2023/01/04 06:08:31;;;;;;;4.70;1.40;;;;;;;;;;5048933;28;20405;-90
2023/01/04 06:10:59;;;;;;;4.38;1.33;;;;;;;;;;5020503;28;20030;-92
2023/01/04 06:13:27;;;;;;;3.00;1.40;;;;;;;;;;5028295;28;20034;-91
2023/01/04 06:16:18;;;;;;;6.60;1.40;;;;;;;;;;5047560;28;20033;-91
2023/01/04 06:18:51;;;;;;;3.13;1.20;;;;;;;;;;5028152;28;20045;-91
2023/01/04 06:21:50;;;;;;;5.00;1.60;;;;;;;;;;5063511;28;20512;-91
2023/01/04 06:24:23;;;;;;;2.92;1.38;;;;;;;;;;5064928;28;20516;-91
2023/01/04 06:27:19;;;;;;;3.05;1.30;;;;;;;;;;5057596;28;20104;-90
2023/01/04 06:29:47;;;;;;;4.38;1.70;;;;;;;;;;5027511;28;20394;-91
2023/01/04 06:32:19;;;;;;;2.33;1.10;;;;;;;;;;5043579;28;20052;-90
2023/01/04 06:34:49;;;;;;;3.92;1.33;;;;;;;;;;5013440;28;20049;-91
2023/01/04 06:37:46;;;;;;;2.70;1.30;;;;;;;;;;5040927;28;20083;-91
2023/01/04 06:40:16;;;;;;;3.83;1.50;;;;;;;;;;5026392;28;20083;-92
2023/01/04 06:42:45;;;;;;;3.15;1.40;;;;;;;;;;5027372;28;20045;-91
2023/01/04 06:46:02;;;;;;;16.13;3.25;;;;;;;;;;5054443;28;20046;-91
2023/01/04 06:48:55;;;;;;;10.18;2.97;;;;;;;;;;5050213;28;20043;-91
2023/01/04 06:51:23;;;;;;;5.47;1.58;;;;;;;;;;4998344;28;20077;-89
2023/01/04 06:53:51;;;;;;;4.47;1.60;;;;;;;;;;5035484;28;20050;-90
2023/01/04 06:56:19;;;;;;;3.70;1.33;;;;;;;;;;5035059;28;20040;-90
2023/01/04 06:58:47;;;;;;;3.75;1.55;;;;;;;;;;5022209;28;20611;-91
2023/01/04 07:01:18;;;;;;;3.28;1.40;;;;;;;;;;5054709;28;20036;-91
2023/01/04 07:03:47;;;;;;;5.05;1.40;;;;;;;;;;5049522;28;20042;-91
2023/01/04 07:06:15;;;;;;;3.53;1.30;;;;;;;;;;5048129;28;20074;-91
2023/01/04 07:08:43;;;;;;;2.85;1.10;;;;;;;;;;5032602;28;20064;-91
2023/01/04 07:11:15;;;;;;;3.70;1.30;;;;;;;;;;5028374;28;20041;-90
2023/01/04 07:13:43;;;;;;;2.60;1.10;;;;;;;;;;5032887;28;20108;-91
2023/01/04 07:16:16;;;;;;;7.70;1.58;;;;;;;;;;5037153;28;20045;-91
2023/01/04 07:18:43;;;;;;;3.63;1.75;;;;;;;;;;5037621;28;20042;-91
2023/01/04 07:21:19;;;;;;;5.18;1.67;;;;;;;;;;5033490;28;20453;-92
2023/01/04 07:23:46;;;;;;;5.97;1.75;;;;;;;;;;5041495;28;20091;-91
2023/01/04 07:26:15;;;;;;;2.83;1.45;;;;;;;;;;5031867;28;20038;-90
2023/01/04 07:31:29;;;;;;;5.85;1.80;;;;;;;;;;5033223;28;20041;-91
2023/01/04 07:33:57;;;;;;;4.97;1.27;;;;;;;;;;5044099;28;20039;-90
2023/01/04 07:36:25;;;;;;;3.05;1.33;;;;;;;;;;5032330;28;20046;-90
2023/01/04 07:39:19;;;;;;;3.78;1.50;;;;;;;;;;5060529;28;20037;-91
2023/01/04 07:41:48;;;;;;;2.42;1.42;;;;;;;;;;5029064;28;20567;-92
2023/01/04 07:44:20;;;;;;;2.67;1.60;;;;;;;;;;5035454;28;20037;-91
2023/01/04 07:47:14;;;;;;;3.67;1.42;;;;;;;;;;5024384;28;20394;-91
2023/01/04 07:49:41;;;;;;;2.95;1.50;;;;;;;;;;5042924;28;20072;-91
2023/01/04 07:52:09;;;;;;;3.28;1.70;;;;;;;;;;5062484;28;20041;-91
2023/01/04 07:54:37;;;;;;;3.65;1.60;;;;;;;;;;5024738;28;20053;-91
2023/01/04 07:57:09;;;;;;;3.40;1.63;;;;;;;;;;5039194;28;20041;-91
2023/01/04 07:59:42;;;;;;;2.97;1.60;;;;;;;;;;5004245;28;20040;-91
2023/01/04 08:02:11;;;;;;;3.80;1.75;;;;;;;;;;5026403;28;20034;-91
2023/01/04 08:04:43;;;;;;;3.13;1.80;;;;;;;;;;5028265;28;20045;-91
2023/01/04 08:07:17;;;;;;;3.42;1.90;;;;;;;;;;5018413;28;20054;-91
2023/01/04 08:09:51;;;;;;;4.03;1.73;;;;;;;;;;5059826;28;20058;-91
2023/01/04 08:12:25;;;;;;;6.28;2.08;;;;;;;;;;5027146;28;20105;-91
2023/01/04 08:14:57;;;;;;;3.20;1.90;;;;;;;;;;5015084;28;20053;-91
2023/01/04 08:17:25;;;;;;;4.55;2.05;;;;;;;;;;5066988;28;20061;-91
2023/01/04 08:19:53;;;;;;;6.32;2.22;;;;;;;;;;5006131;28;20070;-91
2023/01/04 08:22:27;;;;;;;4.18;2.40;;;;;;;;;;5016371;28;20115;-91
2023/01/04 08:24:55;;;;;;;4.10;2.25;;;;;;;;;;5072062;28;20041;-91
2023/01/04 08:27:49;;;;;;;4.22;2.40;;;;;;;;;;5019934;28;20050;-91
2023/01/04 08:30:17;;;;;;;4.82;2.75;;;;;;;;;;5053250;28;20164;-91
2023/01/04 08:32:54;;;;;;;4.75;2.50;;;;;;;;;;5057015;28;20022;-91
2023/01/04 08:35:25;;;;;;;5.43;2.58;;;;;;;;;;5033801;28;20046;-90
2023/01/04 08:37:53;;;;;;;4.57;2.58;;;;;;;;;;5045317;28;20049;-91
2023/01/04 08:40:23;;;;;;;7.55;2.90;;;;;;;;;;5037993;28;20104;-91
2023/01/04 08:43:17;;;;;;;5.50;2.58;;;;;;;;;;5047887;28;20105;-91
2023/01/04 08:45:51;;;;;;;5.38;2.85;;;;;;;;;;5026725;28;20021;-91
2023/01/04 08:48:19;;;;;;;5.43;2.63;;;;;;;;;;5031288;28;20073;-91
2023/01/04 08:50:51;;;;;;;4.53;2.65;;;;;;;;;;5029072;28;20088;-91
2023/01/04 08:53:19;;;;;;;5.53;2.55;;;;;;;;;;5036510;28;20042;-91
2023/01/04 08:55:51;;;;;;;3.67;1.98;;;;;;;;;;5038385;28;20053;-91
2023/01/04 08:58:26;;;;;;;4.80;2.67;;;;;;;;;;5014232;28;20033;-91
2023/01/04 09:01:03;;;;;;;8.55;3.20;;;;;;;;;;5003564;28;20054;-91
2023/01/04 09:03:31;;;;;;;5.78;2.60;;;;;;;;;;5030190;28;20042;-91
2023/01/04 09:06:10;;;;;;;3.78;2.20;;;;;;;;;;5053357;28;20069;-91
2023/01/04 09:08:45;;;;;;;4.80;2.70;;;;;;;;;;5029391;28;20524;-91
2023/01/04 09:11:17;;;;;;;7.35;2.63;;;;;;;;;;5015525;28;20397;-91
2023/01/04 09:13:56;;;;;;;7.50;2.53;;;;;;;;;;5042620;28;20069;-91
2023/01/04 09:16:50;;;;;;;3.97;2.35;;;;;;;;;;5040946;28;20516;-91
2023/01/04 09:19:22;;;;;;;3.80;2.17;;;;;;;;;;5034162;28;20042;-91
2023/01/04 09:21:55;;;;;;;4.57;2.22;;;;;;;;;;4999669;28;20038;-91
2023/01/04 09:24:27;;;;;;;3.83;2.03;;;;;;;;;;5004673;28;20077;-91
2023/01/04 09:27:24;;;;;;;3.88;2.03;;;;;;;;;;5058777;28;20065;-92
2023/01/04 09:29:55;;;;;;;4.55;2.40;;;;;;;;;;5043260;28;20038;-91
2023/01/04 09:32:33;;;;;;;4.70;2.30;;;;;;;;;;5025045;28;20051;-91
2023/01/04 09:35:01;;;;;;;4.10;2.13;;;;;;;;;;5039368;28;20041;-91
2023/01/04 09:37:35;;;;;;;4.38;2.50;;;;;;;;;;5022215;28;20046;-91
2023/01/04 09:40:03;;;;;;;4.03;2.10;;;;;;;;;;5062215;28;20068;-92
2023/01/04 09:42:58;;;;;;;3.40;2.00;;;;;;;;;;5042469;28;20017;-91
2023/01/04 09:45:52;;;;;;;5.18;2.40;;;;;;;;;;5051571;28;20049;-92
2023/01/04 09:48:28;;;;;;;3.72;2.17;;;;;;;;;;5038888;28;20050;-92
2023/01/04 09:51:00;;;;;;;4.68;2.47;;;;;;;;;;5022004;28;20053;-91
2023/01/04 09:54:06;;;;;;;5.55;2.47;;;;;;;;;;5057199;28;20096;-91
2023/01/04 09:56:39;;;;;;;3.70;2.28;;;;;;;;;;5052440;28;20042;-92
2023/01/04 09:59:15;;;;;;;6.57;2.67;;;;;;;;;;5035621;28;20046;-91
2023/01/04 10:01:52;;;;;;;3.63;2.05;;;;;;;;;;5031871;28;20042;-92
2023/01/04 10:04:27;;;;;;;4.35;2.25;;;;;;;;;;5037166;28;20046;-92
2023/01/04 10:06:58;;;;;;;4.10;2.47;;;;;;;;;;5032339;28;20052;-90
2023/01/04 10:09:33;;;;;;;5.25;2.35;;;;;;;;;;5061158;28;20092;-91
2023/01/04 10:12:10;;;;;;;4.60;2.55;;;;;;;;;;5053697;28;20042;-91
2023/01/04 10:15:03;;;;;;;4.22;2.30;;;;;;;;;;5001906;28;20054;-91
2023/01/04 10:18:00;;;;;;;4.55;2.42;;;;;;;;;;4921163;28;20198;-91
2023/01/04 10:21:23;;;;;;;4.05;2.38;;;;;;;;;;4979192;28;20051;-92
2023/01/04 10:24:13;;;;;;;3.83;2.30;;;;;;;;;;4950420;29;20070;-91
2023/01/04 10:26:44;;;;;;;3.28;1.95;;;;;;;;;;4922681;28;20062;-92
2023/01/04 10:30:10;;;;;;;3.90;2.17;;;;;;;;;;4952386;28;20420;-92
2023/01/04 10:32:45;;;;;;;3.50;1.95;;;;;;;;;;4933808;29;20069;-92
2023/01/04 10:35:22;;;;;;;3.10;1.88;;;;;;;;;;4963256;28;20062;-91
2023/01/04 10:38:03;;;;;;;4.65;1.98;;;;;;;;;;4954713;28;20047;-91
2023/01/04 10:40:38;;;;;;;3.63;1.70;;;;;;;;;;4950306;29;20094;-92
2023/01/04 10:44:18;;;;;;;6.35;1.60;;;;;;;;;;4939347;28;20066;-91
2023/01/04 10:47:19;;;;;;;2.72;1.70;;;;;;;;;;4899829;29;20093;-92
2023/01/04 10:50:41;;;;;;;3.53;1.70;;;;;;;;;;4915319;29;20052;-91
2023/01/04 10:53:31;;;;;;;4.07;2.03;;;;;;;;;;4926030;29;20093;-91
2023/01/04 10:56:07;;;;;;;3.03;1.60;;;;;;;;;;4939182;29;20067;-91
2023/01/04 10:59:39;;;;;;;2.90;1.65;;;;;;;;;;4948743;29;20050;-91
2023/01/04 11:02:20;;;;;;;3.83;1.95;;;;;;;;;;4924492;29;20047;-91
2023/01/04 11:05:01;;;;;;;4.72;2.00;;;;;;;;;;4930258;29;20048;-91
2023/01/04 11:07:38;;;;;;;3.13;1.90;;;;;;;;;;4944969;29;20048;-91
2023/01/04 11:10:43;;;;;;;4.43;1.92;;;;;;;;;;4916320;29;20083;-91
2023/01/04 11:13:11;;;;;;;2.65;1.55;;;;;;;;;;4886326;29;20061;-92
2023/01/04 11:15:46;;;;;;;4.00;2.20;;;;;;;;;;4889354;29;20097;-91
2023/01/04 11:18:16;;;;;;;7.07;2.20;;;;;;;;;;4912909;29;20056;-91
2023/01/04 11:21:13;;;;;;;4.03;2.10;;;;;;;;;;4887050;29;20044;-92
2023/01/04 11:23:41;;;;;;;3.03;1.80;;;;;;;;;;5004316;28;20086;-92
2023/01/04 11:26:15;;;;;;;2.97;1.85;;;;;;;;;;4981420;28;20053;-92
2023/01/04 11:28:48;;;;;;;7.60;2.30;;;;;;;;;;4993148;28;20053;-92
2023/01/04 11:31:42;;;;;;;3.88;2.00;;;;;;;;;;4984583;28;20046;-91
2023/01/04 11:34:11;;;;;;;9.60;2.47;;;;;;;;;;5001211;28;20034;-91
2023/01/04 11:37:28;;;;;;;5.82;2.20;;;;;;;;;;4998478;28;20058;-91
2023/01/04 11:40:22;;;;;;;3.60;2.08;;;;;;;;;;4988618;28;20043;-91
2023/01/04 11:43:19;;;;;;;3.75;1.88;;;;;;;;;;5009946;28;20128;-92
2023/01/04 11:46:20;;;;;;;3.60;2.00;;;;;;;;;;4994298;28;20050;-91
2023/01/04 11:48:50;;;;;;;3.17;1.67;;;;;;;;;;4984989;28;20051;-91
2023/01/04 11:51:33;;;;;;;3.08;1.70;;;;;;;;;;5045616;28;20049;-92
2023/01/04 11:54:17;;;;;;;2.75;1.70;;;;;;;;;;5038293;28;20057;-92
2023/01/04 11:57:09;;;;;;;3.55;1.77;;;;;;;;;;5025069;28;20049;-91
2023/01/04 11:59:41;;;;;;;3.53;2.00;;;;;;;;;;5046454;28;20501;-91
2023/01/04 12:02:38;;;;;;;3.95;1.70;;;;;;;;;;5066115;28;20025;-91
2023/01/04 12:05:31;;;;;;;3.97;1.90;;;;;;;;;;5072796;28;20046;-91
2023/01/04 12:08:02;;;;;;;3.30;1.98;;;;;;;;;;5038083;28;20042;-91
2023/01/04 12:10:34;;;;;;;3.25;1.58;;;;;;;;;;5020584;28;20042;-91
2023/01/04 12:13:08;;;;;;;3.80;1.80;;;;;;;;;;5036297;28;20566;-91
2023/01/04 12:15:48;;;;;;;3.15;1.63;;;;;;;;;;5037754;28;20033;-91
2023/01/04 12:18:33;;;;;;;2.95;1.80;;;;;;;;;;5049168;28;20057;-91
2023/01/04 12:21:19;;;;;;;3.25;1.80;;;;;;;;;;5023813;28;20045;-91
2023/01/04 12:23:53;;;;;;;2.65;1.52;;;;;;;;;;5050664;28;20046;-91
2023/01/04 12:26:28;;;;;;;2.90;1.38;;;;;;;;;;5037441;28;20038;-91
2023/01/04 12:29:23;;;;;;;4.60;1.55;;;;;;;;;;5032998;28;20099;-91
2023/01/04 12:32:16;;;;;;;2.15;1.20;;;;;;;;;;5023954;28;20057;-91
2023/01/04 12:34:50;;;;;;;3.20;1.40;;;;;;;;;;5053076;28;20103;-91
2023/01/04 12:37:39;;;;;;;3.13;1.10;;;;;;;;;;5040108;28;20105;-91
2023/01/04 12:40:44;;;;;;;2.67;1.42;;;;;;;;;;5040350;28;20054;-91
2023/01/04 12:43:17;;;;;;;2.08;1.20;;;;;;;;;;5015656;28;20133;-91
2023/01/04 12:49:02;;;;;;;3.25;1.30;;;;;;;;;;5045257;28;20129;-91
2023/01/04 12:55:46;;;;;;;2.13;1.20;;;;;;;;;;5075344;28;20042;-91
2023/01/04 12:58:27;;;;;;;2.88;1.35;;;;;;;;;;5017866;28;20073;-91
2023/01/04 13:01:27;;;;;;;3.45;2.00;;;;;;;;;;5051568;28;20033;-91
2023/01/04 13:04:26;;;;;;;3.22;1.55;;;;;;;;;;5033004;28;20065;-92
2023/01/04 13:07:12;;;;;;;2.72;1.67;;;;;;;;;;5038991;28;20042;-92
2023/01/04 13:09:55;;;;;;;4.22;1.60;;;;;;;;;;5048454;28;20050;-90
2023/01/04 13:12:43;;;;;;;2.50;1.58;;;;;;;;;;5061850;28;20118;-91
2023/01/04 13:15:20;;;;;;;2.50;1.58;;;;;;;;;;5047480;28;20089;-92
2023/01/04 13:17:49;;;;;;;5.60;1.88;;;;;;;;;;5035409;28;20056;-91
2023/01/04 13:20:24;;;;;;;3.63;1.70;;;;;;;;;;5056096;28;20045;-92
2023/01/04 13:22:59;;;;;;;2.40;1.40;;;;;;;;;;5017649;28;20030;-92
2023/01/04 13:25:34;;;;;;;3.40;1.65;;;;;;;;;;5021280;28;20651;-92
2023/01/04 13:28:10;;;;;;;6.75;1.80;;;;;;;;;;5030405;28;20048;-91
2023/01/04 13:30:51;;;;;;;4.18;1.60;;;;;;;;;;5064660;28;20037;-91
2023/01/04 13:33:27;;;;;;;5.13;1.80;;;;;;;;;;5048678;28;20041;-91
2023/01/04 13:36:10;;;;;;;3.72;1.90;;;;;;;;;;5023274;28;20038;-91
2023/01/04 13:38:40;;;;;;;2.70;1.67;;;;;;;;;;5045679;28;20083;-91
2023/01/04 13:41:35;;;;;;;3.65;1.88;;;;;;;;;;5054750;28;20077;-92
2023/01/04 13:44:14;;;;;;;3.15;1.65;;;;;;;;;;5014636;28;20050;-91
2023/01/04 13:46:49;;;;;;;3.97;1.88;;;;;;;;;;5033227;28;20046;-92
2023/01/04 13:49:24;;;;;;;3.40;1.73;;;;;;;;;;5056758;28;20049;-92
2023/01/04 13:51:55;;;;;;;4.32;2.20;;;;;;;;;;5058961;28;20097;-92
2023/01/04 13:54:43;;;;;;;3.20;1.90;;;;;;;;;;5047845;28;20053;-92
2023/01/04 13:57:23;;;;;;;6.78;1.80;;;;;;;;;;5045950;28;20061;-92
2023/01/04 14:00:16;;;;;;;3.65;1.60;;;;;;;;;;5049964;28;20038;-92
2023/01/04 14:02:50;;;;;;;6.22;1.83;;;;;;;;;;5032998;28;20033;-92
2023/01/04 14:05:19;;;;;;;5.47;2.20;;;;;;;;;;5006556;28;20060;-92
2023/01/04 14:08:38;;;;;;;4.95;2.10;;;;;;;;;;5065576;28;20034;-92
2023/01/04 14:14:36;;;;;;;5.28;1.80;;;;;;;;;;5046001;28;20045;-92
2023/01/04 14:17:19;;;;;;;7.35;2.05;;;;;;;;;;5035441;28;20045;-92
2023/01/04 14:19:56;;;;;;;6.50;1.80;;;;;;;;;;5039322;28;20033;-92
2023/01/04 14:22:26;;;;;;;3.88;1.58;;;;;;;;;;5003556;28;20046;-92
2023/01/04 14:25:00;;;;;;;5.88;2.20;;;;;;;;;;5033989;28;20065;-92
2023/01/04 14:27:43;;;;;;;6.97;2.30;;;;;;;;;;5048420;28;20076;-93
2023/01/04 14:30:14;;;;;;;5.80;1.67;;;;;;;;;;5049408;28;20037;-91
2023/01/04 14:32:41;;;;;;;5.10;1.90;;;;;;;;;;5051326;28;20034;-92
2023/01/04 14:35:13;;;;;;;6.15;1.83;;;;;;;;;;5043569;28;20045;-93
2023/01/04 14:37:48;;;;;;;5.80;1.90;;;;;;;;;;5017166;28;20049;-93
2023/01/04 14:40:31;;;;;;;6.57;1.83;;;;;;;;;;5048261;28;20060;-92
2023/01/04 14:43:34;;;;;;;3.47;1.52;;;;;;;;;;4995076;28;20046;-93
2023/01/04 14:46:03;;;;;;;7.07;1.80;;;;;;;;;;5025292;28;20064;-92
2023/01/04 14:48:31;;;;;;;3.10;1.50;;;;;;;;;;5014875;28;20058;-93
2023/01/04 14:50:59;;;;;;;7.88;1.30;;;;;;;;;;5033985;28;20065;-93
2023/01/04 14:53:27;;;;;;;9.15;1.30;;;;;;;;;;5068195;28;20073;-93
2023/01/04 14:55:55;;;;;;;4.97;1.10;;;;;;;;;;5039774;28;20048;-93
2023/01/04 14:58:29;;;;;;;6.85;1.30;;;;;;;;;;5048370;28;20041;-93
2023/01/04 15:00:57;;;;;;;5.68;1.25;;;;;;;;;;5032096;28;20041;-93
2023/01/04 15:03:29;;;;;;;9.07;1.27;;;;;;;;;;5058784;28;20048;-93
2023/01/04 15:06:00;;;;;;;8.35;1.85;;;;;;;;;;5009952;28;20046;-93
2023/01/04 15:08:29;;;;;;;8.60;1.33;;;;;;;;;;5015197;28;20061;-92
2023/01/04 15:10:59;;;;;;;11.90;1.70;;;;;;;;;;5019018;28;20044;-92
2023/01/04 15:13:51;;;;;;;7.97;1.30;;;;;;;;;;5023505;28;20044;-93
2023/01/04 15:16:19;;;;;;;7.93;1.48;;;;;;;;;;5052803;28;20042;-92
2023/01/04 15:18:49;;;;;;;4.63;1.20;;;;;;;;;;5046703;28;20045;-93
2023/01/04 15:21:17;;;;;;;5.85;1.27;;;;;;;;;;5067809;28;20049;-92
2023/01/04 15:23:45;;;;;;;5.38;1.60;;;;;;;;;;5072255;28;20033;-92
2023/01/04 15:26:14;;;;;;;3.53;1.17;;;;;;;;;;5030904;28;20109;-92
2023/01/04 15:28:43;;;;;;;6.32;1.30;;;;;;;;;;5058335;28;20367;-92
2023/01/04 15:31:42;;;;;;;8.43;1.35;;;;;;;;;;5068656;28;20056;-92
2023/01/04 15:34:11;;;;;;;5.05;0.98;;;;;;;;;;5027768;28;20057;-92
2023/01/04 15:36:39;;;;;;;4.30;1.45;;;;;;;;;;5037759;28;20038;-92
2023/01/04 15:39:31;;;;;;;7.03;1.33;;;;;;;;;;5031391;28;20064;-93
2023/01/04 15:45:12;;;;;;;10.27;1.52;;;;;;;;;;5057084;28;20680;-92
2023/01/04 15:47:44;;;;;;;6.38;1.48;;;;;;;;;;5035353;28;20052;-93
2023/01/04 15:50:13;;;;;;;5.65;1.30;;;;;;;;;;5027714;28;20076;-93
2023/01/04 15:52:41;;;;;;;7.18;1.10;;;;;;;;;;5038921;28;20486;-91
2023/01/04 15:55:09;;;;;;;6.80;1.27;;;;;;;;;;5026976;28;20037;-92
2023/01/04 15:57:41;;;;;;;8.93;1.65;;;;;;;;;;5025169;28;20052;-93
2023/01/04 16:00:11;;;;;;;10.05;1.30;;;;;;;;;;5047498;28;20089;-92
2023/01/04 16:02:39;;;;;;;11.07;1.60;;;;;;;;;;5056432;28;20056;-93
2023/01/04 16:05:07;;;;;;;10.98;1.50;;;;;;;;;;5022154;28;20060;-93
2023/01/04 16:07:41;;;;;;;11.63;1.73;;;;;;;;;;5035868;28;20540;-93
2023/01/04 16:10:09;;;;;;;13.43;2.08;;;;;;;;;;5029693;28;20033;-92
2023/01/04 16:12:46;;;;;;;12.30;2.13;;;;;;;;;;5027223;28;20073;-92
2023/01/04 16:15:27;;;;;;;12.68;1.67;;;;;;;;;;5027137;28;20141;-92
2023/01/04 16:17:55;;;;;;;10.27;1.70;;;;;;;;;;5036414;28;20571;-92
2023/01/04 16:20:23;;;;;;;8.93;1.85;;;;;;;;;;5044430;28;20049;-92
2023/01/04 16:22:54;;;;;;;7.90;1.65;;;;;;;;;;5016710;28;20041;-92
2023/01/04 16:25:22;;;;;;;6.03;1.48;;;;;;;;;;5014229;28;20579;-93
2023/01/04 16:27:54;;;;;;;11.10;1.63;;;;;;;;;;5051591;28;20042;-93
2023/01/04 16:30:23;;;;;;;15.32;2.42;;;;;;;;;;5020742;28;20045;-92
2023/01/04 16:32:56;;;;;;;9.32;2.47;;;;;;;;;;5040508;28;20131;-93
2023/01/04 16:35:49;;;;;;;5.22;1.50;;;;;;;;;;5057498;28;20025;-93
2023/01/04 16:38:25;;;;;;;8.00;1.70;;;;;;;;;;5011437;28;20053;-93
2023/01/04 16:41:20;;;;;;;6.43;1.63;;;;;;;;;;5040174;28;20045;-92
2023/01/04 16:43:48;;;;;;;8.57;1.92;;;;;;;;;;5024580;28;20053;-92
2023/01/04 16:46:22;;;;;;;9.85;1.98;;;;;;;;;;5031329;28;20130;-92
2023/01/04 16:48:52;;;;;;;8.02;1.92;;;;;;;;;;5016718;28;20061;-92
2023/01/04 16:51:22;;;;;;;7.00;1.80;;;;;;;;;;5014691;28;20050;-92